sensor_id;sensor_type;location;lat;lon;timestamp;temperature;humidity
23160;DHT22;11748;50.844;4.396;2023-04-29T00:02:11;12.90;99.90
23160;DHT22;11748;50.844;4.396;2023-04-29T00:04:37;12.80;99.90
23160;DHT22;11748;50.844;4.396;2023-04-29T00:07:03;13.00;99.90
23160;DHT22;11748;50.844;4.396;2023-04-29T00:09:28;12.90;99.90
23160;DHT22;11748;50.844;4.396;2023-04-29T00:11:54;12.80;99.90
23160;DHT22;11748;50.844;4.396;2023-04-29T00:14:20;12.70;99.90
23160;DHT22;11748;50.844;4.396;2023-04-29T00:16:46;12.60;99.90
23160;DHT22;11748;50.844;4.396;2023-04-29T00:19:12;12.60;99.90
23160;DHT22;11748;50.844;4.396;2023-04-29T00:21:37;12.60;99.90
23160;DHT22;11748;50.844;4.396;2023-04-29T00:24:03;12.50;99.90
23160;DHT22;11748;50.844;4.396;2023-04-29T00:26:29;12.40;99.90
23160;DHT22;11748;50.844;4.396;2023-04-29T00:28:55;12.40;99.90
23160;DHT22;11748;50.844;4.396;2023-04-29T00:31:20;12.30;99.90
23160;DHT22;11748;50.844;4.396;2023-04-29T00:33:46;12.30;99.90
23160;DHT22;11748;50.844;4.396;2023-04-29T00:36:12;12.20;99.90
23160;DHT22;11748;50.844;4.396;2023-04-29T00:38:38;12.20;99.90
23160;DHT22;11748;50.844;4.396;2023-04-29T00:41:03;12.30;99.90
23160;DHT22;11748;50.844;4.396;2023-04-29T00:43:29;12.40;99.90
23160;DHT22;11748;50.844;4.396;2023-04-29T00:45:55;12.30;99.90
23160;DHT22;11748;50.844;4.396;2023-04-29T00:48:20;12.30;99.90
23160;DHT22;11748;50.844;4.396;2023-04-29T00:50:46;12.40;99.90
23160;DHT22;11748;50.844;4.396;2023-04-29T00:53:13;12.40;99.90
23160;DHT22;11748;50.844;4.396;2023-04-29T00:55:40;12.40;99.90
23160;DHT22;11748;50.844;4.396;2023-04-29T00:58:07;12.30;99.90
23160;DHT22;11748;50.844;4.396;2023-04-29T01:00:34;12.40;99.90
23160;DHT22;11748;50.844;4.396;2023-04-29T01:03:01;12.40;99.90
23160;DHT22;11748;50.844;4.396;2023-04-29T01:05:28;12.30;99.90
23160;DHT22;11748;50.844;4.396;2023-04-29T01:08:12;12.20;99.90
23160;DHT22;11748;50.844;4.396;2023-04-29T01:10:47;12.20;99.90
23160;DHT22;11748;50.844;4.396;2023-04-29T01:16:00;12.10;99.90
23160;DHT22;11748;50.844;4.396;2023-04-29T01:19:01;12.20;99.90
23160;DHT22;11748;50.844;4.396;2023-04-29T01:21:27;12.20;99.90
23160;DHT22;11748;50.844;4.396;2023-04-29T01:23:56;12.10;99.90
23160;DHT22;11748;50.844;4.396;2023-04-29T01:26:22;12.00;99.90
23160;DHT22;11748;50.844;4.396;2023-04-29T01:32:10;12.00;99.90
23160;DHT22;11748;50.844;4.396;2023-04-29T01:34:53;12.10;99.90
23160;DHT22;11748;50.844;4.396;2023-04-29T01:37:36;11.90;99.90
23160;DHT22;11748;50.844;4.396;2023-04-29T01:40:29;11.80;99.90
23160;DHT22;11748;50.844;4.396;2023-04-29T01:43:01;11.80;99.90
23160;DHT22;11748;50.844;4.396;2023-04-29T01:45:28;11.80;99.90
23160;DHT22;11748;50.844;4.396;2023-04-29T01:47:56;11.90;99.90
23160;DHT22;11748;50.844;4.396;2023-04-29T01:50:23;11.90;99.90
23160;DHT22;11748;50.844;4.396;2023-04-29T01:52:49;11.90;99.90
23160;DHT22;11748;50.844;4.396;2023-04-29T01:55:16;11.90;99.90
23160;DHT22;11748;50.844;4.396;2023-04-29T01:57:43;11.80;99.90
23160;DHT22;11748;50.844;4.396;2023-04-29T02:00:09;11.70;99.90
23160;DHT22;11748;50.844;4.396;2023-04-29T02:02:36;11.80;99.90
23160;DHT22;11748;50.844;4.396;2023-04-29T02:05:02;11.90;99.90
23160;DHT22;11748;50.844;4.396;2023-04-29T02:07:28;11.90;99.90
23160;DHT22;11748;50.844;4.396;2023-04-29T02:09:53;12.00;99.90
23160;DHT22;11748;50.844;4.396;2023-04-29T02:12:19;11.90;99.90
23160;DHT22;11748;50.844;4.396;2023-04-29T02:14:45;11.90;99.90
23160;DHT22;11748;50.844;4.396;2023-04-29T02:17:12;11.80;99.90
23160;DHT22;11748;50.844;4.396;2023-04-29T02:19:38;11.70;99.90
23160;DHT22;11748;50.844;4.396;2023-04-29T02:22:04;11.70;99.90
23160;DHT22;11748;50.844;4.396;2023-04-29T02:24:30;11.70;99.90
23160;DHT22;11748;50.844;4.396;2023-04-29T02:26:56;11.70;99.90
23160;DHT22;11748;50.844;4.396;2023-04-29T02:29:23;11.80;99.90
23160;DHT22;11748;50.844;4.396;2023-04-29T02:31:51;11.70;99.90
23160;DHT22;11748;50.844;4.396;2023-04-29T02:34:17;11.60;99.90
23160;DHT22;11748;50.844;4.396;2023-04-29T02:36:42;11.50;99.90
23160;DHT22;11748;50.844;4.396;2023-04-29T02:39:09;11.40;99.90
23160;DHT22;11748;50.844;4.396;2023-04-29T02:41:35;11.50;99.90
23160;DHT22;11748;50.844;4.396;2023-04-29T02:44:01;11.50;99.90
23160;DHT22;11748;50.844;4.396;2023-04-29T02:46:26;11.40;99.90
23160;DHT22;11748;50.844;4.396;2023-04-29T02:48:52;11.40;99.90
23160;DHT22;11748;50.844;4.396;2023-04-29T02:51:18;11.50;99.90
23160;DHT22;11748;50.844;4.396;2023-04-29T02:53:44;11.50;99.90
23160;DHT22;11748;50.844;4.396;2023-04-29T02:56:10;11.40;99.90
23160;DHT22;11748;50.844;4.396;2023-04-29T02:58:36;11.20;99.90
23160;DHT22;11748;50.844;4.396;2023-04-29T03:01:01;11.30;99.90
23160;DHT22;11748;50.844;4.396;2023-04-29T03:03:28;11.30;99.90
23160;DHT22;11748;50.844;4.396;2023-04-29T03:05:54;11.40;99.90
23160;DHT22;11748;50.844;4.396;2023-04-29T03:08:19;11.50;99.90
23160;DHT22;11748;50.844;4.396;2023-04-29T03:10:45;11.50;99.90
23160;DHT22;11748;50.844;4.396;2023-04-29T03:13:11;11.50;99.90
23160;DHT22;11748;50.844;4.396;2023-04-29T03:15:37;11.60;99.90
23160;DHT22;11748;50.844;4.396;2023-04-29T03:18:03;11.50;99.90
23160;DHT22;11748;50.844;4.396;2023-04-29T03:20:29;11.60;99.90
23160;DHT22;11748;50.844;4.396;2023-04-29T03:22:55;11.50;99.90
23160;DHT22;11748;50.844;4.396;2023-04-29T03:25:21;11.40;99.90
23160;DHT22;11748;50.844;4.396;2023-04-29T03:27:47;11.30;99.90
23160;DHT22;11748;50.844;4.396;2023-04-29T03:30:13;11.10;99.90
23160;DHT22;11748;50.844;4.396;2023-04-29T03:32:38;11.10;99.90
23160;DHT22;11748;50.844;4.396;2023-04-29T03:35:04;11.10;99.90
23160;DHT22;11748;50.844;4.396;2023-04-29T03:37:30;11.20;99.90
23160;DHT22;11748;50.844;4.396;2023-04-29T03:39:56;11.30;99.90
23160;DHT22;11748;50.844;4.396;2023-04-29T03:42:22;11.40;99.90
23160;DHT22;11748;50.844;4.396;2023-04-29T03:44:50;11.40;99.90
23160;DHT22;11748;50.844;4.396;2023-04-29T03:47:16;11.40;99.90
23160;DHT22;11748;50.844;4.396;2023-04-29T03:49:42;11.40;99.90
23160;DHT22;11748;50.844;4.396;2023-04-29T03:52:07;11.50;99.90
23160;DHT22;11748;50.844;4.396;2023-04-29T03:54:33;11.60;99.90
23160;DHT22;11748;50.844;4.396;2023-04-29T03:56:59;11.50;99.90
23160;DHT22;11748;50.844;4.396;2023-04-29T03:59:26;11.60;99.90
23160;DHT22;11748;50.844;4.396;2023-04-29T04:01:52;11.60;99.90
23160;DHT22;11748;50.844;4.396;2023-04-29T04:04:18;11.60;99.90
23160;DHT22;11748;50.844;4.396;2023-04-29T04:06:44;11.60;99.90
23160;DHT22;11748;50.844;4.396;2023-04-29T04:09:15;11.60;99.90
23160;DHT22;11748;50.844;4.396;2023-04-29T04:11:41;11.50;99.90
23160;DHT22;11748;50.844;4.396;2023-04-29T04:14:07;11.40;99.90
23160;DHT22;11748;50.844;4.396;2023-04-29T04:16:33;11.40;99.90
23160;DHT22;11748;50.844;4.396;2023-04-29T04:18:58;11.40;99.90
23160;DHT22;11748;50.844;4.396;2023-04-29T04:21:24;11.40;99.90
23160;DHT22;11748;50.844;4.396;2023-04-29T04:23:50;11.40;99.90
23160;DHT22;11748;50.844;4.396;2023-04-29T04:26:15;11.50;99.90
23160;DHT22;11748;50.844;4.396;2023-04-29T04:28:41;11.50;99.90
23160;DHT22;11748;50.844;4.396;2023-04-29T04:31:07;11.60;99.90
23160;DHT22;11748;50.844;4.396;2023-04-29T04:33:33;11.60;99.90
23160;DHT22;11748;50.844;4.396;2023-04-29T04:35:59;11.50;99.90
23160;DHT22;11748;50.844;4.396;2023-04-29T04:38:24;11.40;99.90
23160;DHT22;11748;50.844;4.396;2023-04-29T04:40:52;11.40;99.90
23160;DHT22;11748;50.844;4.396;2023-04-29T04:43:18;11.50;99.90
23160;DHT22;11748;50.844;4.396;2023-04-29T04:45:44;11.60;99.90
23160;DHT22;11748;50.844;4.396;2023-04-29T04:48:09;11.60;99.90
23160;DHT22;11748;50.844;4.396;2023-04-29T04:50:35;11.30;99.90
23160;DHT22;11748;50.844;4.396;2023-04-29T04:53:01;11.40;99.90
23160;DHT22;11748;50.844;4.396;2023-04-29T04:55:27;11.50;99.90
23160;DHT22;11748;50.844;4.396;2023-04-29T04:57:53;11.60;99.90
23160;DHT22;11748;50.844;4.396;2023-04-29T05:00:18;11.60;99.90
23160;DHT22;11748;50.844;4.396;2023-04-29T05:02:44;11.50;99.90
23160;DHT22;11748;50.844;4.396;2023-04-29T05:05:10;11.50;99.90
23160;DHT22;11748;50.844;4.396;2023-04-29T05:07:36;11.50;99.90
23160;DHT22;11748;50.844;4.396;2023-04-29T05:10:02;11.30;99.90
23160;DHT22;11748;50.844;4.396;2023-04-29T05:12:28;11.30;99.90
23160;DHT22;11748;50.844;4.396;2023-04-29T05:14:56;11.20;99.90
23160;DHT22;11748;50.844;4.396;2023-04-29T05:17:22;11.20;99.90
23160;DHT22;11748;50.844;4.396;2023-04-29T05:19:48;11.20;99.90
23160;DHT22;11748;50.844;4.396;2023-04-29T05:22:13;11.00;99.90
23160;DHT22;11748;50.844;4.396;2023-04-29T05:24:39;11.10;99.90
23160;DHT22;11748;50.844;4.396;2023-04-29T05:27:05;11.10;99.90
23160;DHT22;11748;50.844;4.396;2023-04-29T05:29:31;11.00;99.90
23160;DHT22;11748;50.844;4.396;2023-04-29T05:31:57;10.80;99.90
23160;DHT22;11748;50.844;4.396;2023-04-29T05:34:24;10.90;99.90
23160;DHT22;11748;50.844;4.396;2023-04-29T05:36:50;11.00;99.90
23160;DHT22;11748;50.844;4.396;2023-04-29T05:39:16;11.00;99.90
23160;DHT22;11748;50.844;4.396;2023-04-29T05:41:42;11.20;99.90
23160;DHT22;11748;50.844;4.396;2023-04-29T05:44:08;11.20;99.90
23160;DHT22;11748;50.844;4.396;2023-04-29T05:46:34;11.20;99.90
23160;DHT22;11748;50.844;4.396;2023-04-29T05:49:00;11.20;99.90
23160;DHT22;11748;50.844;4.396;2023-04-29T05:51:26;11.20;99.90
23160;DHT22;11748;50.844;4.396;2023-04-29T05:53:55;11.20;99.90
23160;DHT22;11748;50.844;4.396;2023-04-29T05:56:21;11.20;99.90
23160;DHT22;11748;50.844;4.396;2023-04-29T05:58:48;11.30;99.90
23160;DHT22;11748;50.844;4.396;2023-04-29T06:01:14;11.20;99.90
23160;DHT22;11748;50.844;4.396;2023-04-29T06:03:39;11.10;99.90
23160;DHT22;11748;50.844;4.396;2023-04-29T06:06:07;11.10;99.90
23160;DHT22;11748;50.844;4.396;2023-04-29T06:08:33;11.10;99.90
23160;DHT22;11748;50.844;4.396;2023-04-29T06:10:58;11.10;99.90
23160;DHT22;11748;50.844;4.396;2023-04-29T06:13:24;11.10;99.90
23160;DHT22;11748;50.844;4.396;2023-04-29T06:15:51;11.10;99.90
23160;DHT22;11748;50.844;4.396;2023-04-29T06:18:16;11.10;99.90
23160;DHT22;11748;50.844;4.396;2023-04-29T06:20:42;11.10;99.90
23160;DHT22;11748;50.844;4.396;2023-04-29T06:23:08;11.10;99.90
23160;DHT22;11748;50.844;4.396;2023-04-29T06:25:33;11.10;99.90
23160;DHT22;11748;50.844;4.396;2023-04-29T06:27:59;11.10;99.90
23160;DHT22;11748;50.844;4.396;2023-04-29T06:30:26;11.00;99.90
23160;DHT22;11748;50.844;4.396;2023-04-29T06:32:51;11.10;99.90
23160;DHT22;11748;50.844;4.396;2023-04-29T06:35:18;11.10;99.90
23160;DHT22;11748;50.844;4.396;2023-04-29T06:37:43;11.10;99.90
23160;DHT22;11748;50.844;4.396;2023-04-29T06:40:11;11.10;99.90
23160;DHT22;11748;50.844;4.396;2023-04-29T06:42:37;11.00;99.90
23160;DHT22;11748;50.844;4.396;2023-04-29T06:45:03;11.10;99.90
23160;DHT22;11748;50.844;4.396;2023-04-29T06:47:29;11.10;99.90
23160;DHT22;11748;50.844;4.396;2023-04-29T06:49:55;11.10;99.90
23160;DHT22;11748;50.844;4.396;2023-04-29T06:52:21;11.20;99.90
23160;DHT22;11748;50.844;4.396;2023-04-29T06:54:46;11.20;99.90
23160;DHT22;11748;50.844;4.396;2023-04-29T06:57:12;11.20;99.90
23160;DHT22;11748;50.844;4.396;2023-04-29T06:59:38;11.10;99.90
23160;DHT22;11748;50.844;4.396;2023-04-29T07:02:04;11.20;99.90
23160;DHT22;11748;50.844;4.396;2023-04-29T07:04:30;11.10;99.90
23160;DHT22;11748;50.844;4.396;2023-04-29T07:06:55;11.10;99.90
23160;DHT22;11748;50.844;4.396;2023-04-29T07:09:21;11.10;99.90
23160;DHT22;11748;50.844;4.396;2023-04-29T07:11:48;11.20;99.90
23160;DHT22;11748;50.844;4.396;2023-04-29T07:14:14;11.20;99.90
23160;DHT22;11748;50.844;4.396;2023-04-29T07:16:40;11.30;99.90
23160;DHT22;11748;50.844;4.396;2023-04-29T07:19:06;11.30;99.90
23160;DHT22;11748;50.844;4.396;2023-04-29T07:21:31;11.30;99.90
23160;DHT22;11748;50.844;4.396;2023-04-29T07:23:57;11.20;99.90
23160;DHT22;11748;50.844;4.396;2023-04-29T07:26:25;11.20;99.90
23160;DHT22;11748;50.844;4.396;2023-04-29T07:28:51;11.30;99.90
23160;DHT22;11748;50.844;4.396;2023-04-29T07:31:17;11.40;99.90
23160;DHT22;11748;50.844;4.396;2023-04-29T07:33:43;11.40;99.90
23160;DHT22;11748;50.844;4.396;2023-04-29T07:36:10;11.40;99.90
23160;DHT22;11748;50.844;4.396;2023-04-29T07:38:36;11.60;99.90
23160;DHT22;11748;50.844;4.396;2023-04-29T07:41:02;11.70;99.90
23160;DHT22;11748;50.844;4.396;2023-04-29T07:43:31;11.90;99.90
23160;DHT22;11748;50.844;4.396;2023-04-29T07:45:56;12.10;99.90
23160;DHT22;11748;50.844;4.396;2023-04-29T07:48:22;12.20;99.90
23160;DHT22;11748;50.844;4.396;2023-04-29T07:50:48;12.40;99.90
23160;DHT22;11748;50.844;4.396;2023-04-29T07:53:14;12.70;99.90
23160;DHT22;11748;50.844;4.396;2023-04-29T07:55:40;12.60;99.90
23160;DHT22;11748;50.844;4.396;2023-04-29T07:58:06;12.30;99.90
23160;DHT22;11748;50.844;4.396;2023-04-29T08:00:32;12.20;99.90
23160;DHT22;11748;50.844;4.396;2023-04-29T08:02:58;12.10;99.90
23160;DHT22;11748;50.844;4.396;2023-04-29T08:05:24;12.40;99.90
23160;DHT22;11748;50.844;4.396;2023-04-29T08:07:50;12.40;99.90
23160;DHT22;11748;50.844;4.396;2023-04-29T08:10:17;12.30;99.90
23160;DHT22;11748;50.844;4.396;2023-04-29T08:12:49;12.40;99.90
23160;DHT22;11748;50.844;4.396;2023-04-29T08:15:15;12.50;99.90
23160;DHT22;11748;50.844;4.396;2023-04-29T08:17:43;12.60;99.90
23160;DHT22;11748;50.844;4.396;2023-04-29T08:20:09;12.60;99.90
23160;DHT22;11748;50.844;4.396;2023-04-29T08:22:35;12.60;99.90
23160;DHT22;11748;50.844;4.396;2023-04-29T08:25:02;12.80;99.90
23160;DHT22;11748;50.844;4.396;2023-04-29T08:27:30;13.00;99.90
23160;DHT22;11748;50.844;4.396;2023-04-29T08:29:55;13.20;99.90
23160;DHT22;11748;50.844;4.396;2023-04-29T08:32:22;13.30;99.90
23160;DHT22;11748;50.844;4.396;2023-04-29T08:34:48;13.60;99.90
23160;DHT22;11748;50.844;4.396;2023-04-29T08:37:13;13.80;99.90
23160;DHT22;11748;50.844;4.396;2023-04-29T08:39:40;14.00;99.90
23160;DHT22;11748;50.844;4.396;2023-04-29T08:42:11;13.80;99.90
23160;DHT22;11748;50.844;4.396;2023-04-29T08:44:37;13.90;99.90
23160;DHT22;11748;50.844;4.396;2023-04-29T08:47:05;14.00;99.90
23160;DHT22;11748;50.844;4.396;2023-04-29T08:49:31;14.00;99.90
23160;DHT22;11748;50.844;4.396;2023-04-29T08:51:58;14.00;99.90
23160;DHT22;11748;50.844;4.396;2023-04-29T08:54:25;13.70;99.90
23160;DHT22;11748;50.844;4.396;2023-04-29T08:56:52;13.60;99.90
23160;DHT22;11748;50.844;4.396;2023-04-29T08:59:20;13.80;99.90
23160;DHT22;11748;50.844;4.396;2023-04-29T09:01:48;14.00;99.90
23160;DHT22;11748;50.844;4.396;2023-04-29T09:04:29;14.00;99.90
23160;DHT22;11748;50.844;4.396;2023-04-29T09:06:56;14.20;99.90
23160;DHT22;11748;50.844;4.396;2023-04-29T09:09:25;13.90;99.90
23160;DHT22;11748;50.844;4.396;2023-04-29T09:11:52;13.80;99.90
23160;DHT22;11748;50.844;4.396;2023-04-29T09:14:18;13.60;99.90
23160;DHT22;11748;50.844;4.396;2023-04-29T09:16:47;13.80;99.90
23160;DHT22;11748;50.844;4.396;2023-04-29T09:19:30;13.80;99.90
23160;DHT22;11748;50.844;4.396;2023-04-29T09:21:56;13.50;99.90
23160;DHT22;11748;50.844;4.396;2023-04-29T09:24:26;13.40;99.90
23160;DHT22;11748;50.844;4.396;2023-04-29T09:26:52;13.70;99.90
23160;DHT22;11748;50.844;4.396;2023-04-29T09:29:18;14.00;99.90
23160;DHT22;11748;50.844;4.396;2023-04-29T09:31:45;14.10;99.90
23160;DHT22;11748;50.844;4.396;2023-04-29T09:34:12;14.20;99.90
23160;DHT22;11748;50.844;4.396;2023-04-29T09:39:11;14.00;99.90
23160;DHT22;11748;50.844;4.396;2023-04-29T09:44:09;14.40;99.90
23160;DHT22;11748;50.844;4.396;2023-04-29T09:46:36;14.30;99.90
23160;DHT22;11748;50.844;4.396;2023-04-29T09:49:02;14.30;99.90
23160;DHT22;11748;50.844;4.396;2023-04-29T09:51:31;14.20;99.90
23160;DHT22;11748;50.844;4.396;2023-04-29T09:54:00;14.30;99.90
23160;DHT22;11748;50.844;4.396;2023-04-29T09:56:53;14.20;99.90
23160;DHT22;11748;50.844;4.396;2023-04-29T09:59:19;14.20;99.90
23160;DHT22;11748;50.844;4.396;2023-04-29T10:01:50;14.30;99.90
23160;DHT22;11748;50.844;4.396;2023-04-29T10:04:18;14.00;99.90
23160;DHT22;11748;50.844;4.396;2023-04-29T10:06:48;14.30;99.90
23160;DHT22;11748;50.844;4.396;2023-04-29T10:09:15;14.60;99.90
23160;DHT22;11748;50.844;4.396;2023-04-29T10:11:45;14.90;99.90
23160;DHT22;11748;50.844;4.396;2023-04-29T10:14:15;15.20;99.90
23160;DHT22;11748;50.844;4.396;2023-04-29T10:16:49;15.10;99.90
23160;DHT22;11748;50.844;4.396;2023-04-29T10:19:26;15.20;99.90
23160;DHT22;11748;50.844;4.396;2023-04-29T10:21:57;15.30;99.90
23160;DHT22;11748;50.844;4.396;2023-04-29T10:24:25;15.50;99.90
23160;DHT22;11748;50.844;4.396;2023-04-29T10:26:52;15.80;99.90
23160;DHT22;11748;50.844;4.396;2023-04-29T10:29:24;16.40;99.90
23160;DHT22;11748;50.844;4.396;2023-04-29T10:31:52;16.70;99.90
23160;DHT22;11748;50.844;4.396;2023-04-29T10:34:19;16.60;99.90
23160;DHT22;11748;50.844;4.396;2023-04-29T10:36:45;16.30;99.90
23160;DHT22;11748;50.844;4.396;2023-04-29T10:39:18;16.60;99.90
23160;DHT22;11748;50.844;4.396;2023-04-29T10:41:46;16.30;99.90
23160;DHT22;11748;50.844;4.396;2023-04-29T10:44:12;16.30;99.90
23160;DHT22;11748;50.844;4.396;2023-04-29T10:46:39;16.30;99.90
23160;DHT22;11748;50.844;4.396;2023-04-29T10:49:06;16.00;99.90
23160;DHT22;11748;50.844;4.396;2023-04-29T10:51:40;15.70;99.90
23160;DHT22;11748;50.844;4.396;2023-04-29T10:56:49;16.10;99.90
23160;DHT22;11748;50.844;4.396;2023-04-29T10:59:19;16.30;99.90
23160;DHT22;11748;50.844;4.396;2023-04-29T11:01:50;16.40;99.90
23160;DHT22;11748;50.844;4.396;2023-04-29T11:04:18;16.60;99.90
23160;DHT22;11748;50.844;4.396;2023-04-29T11:06:52;16.80;99.90
23160;DHT22;11748;50.844;4.396;2023-04-29T11:09:26;17.10;99.90
23160;DHT22;11748;50.844;4.396;2023-04-29T11:14:41;17.40;99.90
23160;DHT22;11748;50.844;4.396;2023-04-29T11:17:15;17.10;99.90
23160;DHT22;11748;50.844;4.396;2023-04-29T11:19:49;17.30;99.90
23160;DHT22;11748;50.844;4.396;2023-04-29T11:25:18;17.10;99.90
23160;DHT22;11748;50.844;4.396;2023-04-29T11:27:44;16.90;99.90
23160;DHT22;11748;50.844;4.396;2023-04-29T11:30:13;16.80;99.90
23160;DHT22;11748;50.844;4.396;2023-04-29T11:32:40;16.60;99.90
23160;DHT22;11748;50.844;4.396;2023-04-29T11:37:36;16.30;99.90
23160;DHT22;11748;50.844;4.396;2023-04-29T11:40:02;16.30;99.90
23160;DHT22;11748;50.844;4.396;2023-04-29T11:42:27;16.80;99.90
23160;DHT22;11748;50.844;4.396;2023-04-29T11:44:54;17.10;99.90
23160;DHT22;11748;50.844;4.396;2023-04-29T11:47:26;17.10;99.90
23160;DHT22;11748;50.844;4.396;2023-04-29T11:49:52;17.30;99.90
23160;DHT22;11748;50.844;4.396;2023-04-29T11:52:19;17.40;99.90
23160;DHT22;11748;50.844;4.396;2023-04-29T11:54:46;17.20;99.90
23160;DHT22;11748;50.844;4.396;2023-04-29T11:57:13;17.00;99.90
23160;DHT22;11748;50.844;4.396;2023-04-29T11:59:41;17.10;99.90
23160;DHT22;11748;50.844;4.396;2023-04-29T12:02:11;17.30;99.90
23160;DHT22;11748;50.844;4.396;2023-04-29T12:04:45;17.40;99.90
23160;DHT22;11748;50.844;4.396;2023-04-29T12:07:14;17.20;99.90
23160;DHT22;11748;50.844;4.396;2023-04-29T12:09:42;17.30;99.90
23160;DHT22;11748;50.844;4.396;2023-04-29T12:12:08;17.20;99.90
23160;DHT22;11748;50.844;4.396;2023-04-29T12:14:34;17.30;99.90
23160;DHT22;11748;50.844;4.396;2023-04-29T12:17:00;17.30;99.90
23160;DHT22;11748;50.844;4.396;2023-04-29T12:19:26;17.00;99.90
23160;DHT22;11748;50.844;4.396;2023-04-29T12:21:52;16.70;99.90
23160;DHT22;11748;50.844;4.396;2023-04-29T12:24:20;16.70;99.90
23160;DHT22;11748;50.844;4.396;2023-04-29T12:26:45;16.90;99.90
23160;DHT22;11748;50.844;4.396;2023-04-29T12:29:12;17.10;99.90
23160;DHT22;11748;50.844;4.396;2023-04-29T12:31:38;17.20;99.90
23160;DHT22;11748;50.844;4.396;2023-04-29T12:34:04;17.50;99.90
23160;DHT22;11748;50.844;4.396;2023-04-29T12:36:30;17.70;99.90
23160;DHT22;11748;50.844;4.396;2023-04-29T12:38:58;17.80;99.90
23160;DHT22;11748;50.844;4.396;2023-04-29T12:41:40;17.60;99.90
23160;DHT22;11748;50.844;4.396;2023-04-29T12:44:06;17.70;99.90
23160;DHT22;11748;50.844;4.396;2023-04-29T12:46:39;18.10;99.90
23160;DHT22;11748;50.844;4.396;2023-04-29T12:49:06;18.20;99.90
23160;DHT22;11748;50.844;4.396;2023-04-29T12:51:33;18.30;99.90
23160;DHT22;11748;50.844;4.396;2023-04-29T12:54:01;18.50;99.90
23160;DHT22;11748;50.844;4.396;2023-04-29T12:56:28;18.20;99.90
23160;DHT22;11748;50.844;4.396;2023-04-29T12:58:55;18.20;99.90
23160;DHT22;11748;50.844;4.396;2023-04-29T13:01:20;18.10;99.90
23160;DHT22;11748;50.844;4.396;2023-04-29T13:03:46;18.00;99.90
23160;DHT22;11748;50.844;4.396;2023-04-29T13:06:14;17.20;99.90
23160;DHT22;11748;50.844;4.396;2023-04-29T13:08:41;17.20;99.90
23160;DHT22;11748;50.844;4.396;2023-04-29T13:11:06;17.40;99.90
23160;DHT22;11748;50.844;4.396;2023-04-29T13:13:32;17.70;99.90
23160;DHT22;11748;50.844;4.396;2023-04-29T13:15:58;17.80;99.90
23160;DHT22;11748;50.844;4.396;2023-04-29T13:18:24;18.10;99.90
23160;DHT22;11748;50.844;4.396;2023-04-29T13:20:50;18.20;99.90
23160;DHT22;11748;50.844;4.396;2023-04-29T13:23:16;18.10;99.90
23160;DHT22;11748;50.844;4.396;2023-04-29T13:25:42;17.80;99.90
23160;DHT22;11748;50.844;4.396;2023-04-29T13:28:07;17.70;99.90
23160;DHT22;11748;50.844;4.396;2023-04-29T13:30:33;17.60;99.90
23160;DHT22;11748;50.844;4.396;2023-04-29T13:32:59;17.60;99.90
23160;DHT22;11748;50.844;4.396;2023-04-29T13:35:25;17.80;99.90
23160;DHT22;11748;50.844;4.396;2023-04-29T13:37:51;18.00;99.90
23160;DHT22;11748;50.844;4.396;2023-04-29T13:40:17;18.10;99.90
23160;DHT22;11748;50.844;4.396;2023-04-29T13:42:43;18.00;99.90
23160;DHT22;11748;50.844;4.396;2023-04-29T13:45:09;18.00;99.90
23160;DHT22;11748;50.844;4.396;2023-04-29T13:47:35;17.70;99.90
23160;DHT22;11748;50.844;4.396;2023-04-29T13:50:01;17.40;99.90
23160;DHT22;11748;50.844;4.396;2023-04-29T13:52:27;17.00;99.90
23160;DHT22;11748;50.844;4.396;2023-04-29T13:54:54;17.10;99.90
23160;DHT22;11748;50.844;4.396;2023-04-29T13:57:20;16.90;99.90
23160;DHT22;11748;50.844;4.396;2023-04-29T13:59:46;16.80;99.90
23160;DHT22;11748;50.844;4.396;2023-04-29T14:02:13;17.00;99.90
23160;DHT22;11748;50.844;4.396;2023-04-29T14:04:39;17.40;99.90
23160;DHT22;11748;50.844;4.396;2023-04-29T14:07:05;17.60;99.90
23160;DHT22;11748;50.844;4.396;2023-04-29T14:09:31;17.70;99.90
23160;DHT22;11748;50.844;4.396;2023-04-29T14:11:57;17.80;99.90
23160;DHT22;11748;50.844;4.396;2023-04-29T14:14:22;18.10;99.90
23160;DHT22;11748;50.844;4.396;2023-04-29T14:16:48;18.30;99.90
23160;DHT22;11748;50.844;4.396;2023-04-29T14:19:14;18.20;99.90
23160;DHT22;11748;50.844;4.396;2023-04-29T14:21:40;18.20;99.90
23160;DHT22;11748;50.844;4.396;2023-04-29T14:24:06;18.20;99.90
23160;DHT22;11748;50.844;4.396;2023-04-29T14:26:31;18.00;99.90
23160;DHT22;11748;50.844;4.396;2023-04-29T14:28:58;18.10;99.90
23160;DHT22;11748;50.844;4.396;2023-04-29T14:31:29;18.10;99.90
23160;DHT22;11748;50.844;4.396;2023-04-29T14:33:56;18.10;99.90
23160;DHT22;11748;50.844;4.396;2023-04-29T14:36:22;18.20;99.90
23160;DHT22;11748;50.844;4.396;2023-04-29T14:38:48;18.50;99.90
23160;DHT22;11748;50.844;4.396;2023-04-29T14:41:14;17.90;99.90
23160;DHT22;11748;50.844;4.396;2023-04-29T14:43:40;17.80;99.90
23160;DHT22;11748;50.844;4.396;2023-04-29T14:46:07;17.60;99.90
23160;DHT22;11748;50.844;4.396;2023-04-29T14:48:33;18.00;99.90
23160;DHT22;11748;50.844;4.396;2023-04-29T14:50:59;17.90;99.90
23160;DHT22;11748;50.844;4.396;2023-04-29T14:53:25;17.70;99.90
23160;DHT22;11748;50.844;4.396;2023-04-29T14:55:51;17.50;99.90
23160;DHT22;11748;50.844;4.396;2023-04-29T14:58:20;17.20;99.90
23160;DHT22;11748;50.844;4.396;2023-04-29T15:00:46;17.20;99.90
23160;DHT22;11748;50.844;4.396;2023-04-29T15:03:12;17.40;99.90
23160;DHT22;11748;50.844;4.396;2023-04-29T15:05:38;17.50;99.90
23160;DHT22;11748;50.844;4.396;2023-04-29T15:08:03;17.40;99.90
23160;DHT22;11748;50.844;4.396;2023-04-29T15:10:29;17.50;99.90
23160;DHT22;11748;50.844;4.396;2023-04-29T15:12:56;17.90;99.90
23160;DHT22;11748;50.844;4.396;2023-04-29T15:15:22;18.00;99.90
23160;DHT22;11748;50.844;4.396;2023-04-29T15:17:48;18.20;99.90
23160;DHT22;11748;50.844;4.396;2023-04-29T15:20:14;18.20;99.90
23160;DHT22;11748;50.844;4.396;2023-04-29T15:22:40;18.30;99.90
23160;DHT22;11748;50.844;4.396;2023-04-29T15:25:06;18.20;99.90
23160;DHT22;11748;50.844;4.396;2023-04-29T15:27:33;18.10;99.90
23160;DHT22;11748;50.844;4.396;2023-04-29T15:29:59;18.20;99.90
23160;DHT22;11748;50.844;4.396;2023-04-29T15:32:25;18.20;99.90
23160;DHT22;11748;50.844;4.396;2023-04-29T15:34:56;18.10;99.90
23160;DHT22;11748;50.844;4.396;2023-04-29T15:37:22;18.20;99.90
23160;DHT22;11748;50.844;4.396;2023-04-29T15:39:48;18.10;99.90
23160;DHT22;11748;50.844;4.396;2023-04-29T15:42:14;17.80;99.90
23160;DHT22;11748;50.844;4.396;2023-04-29T15:44:40;17.90;99.90
23160;DHT22;11748;50.844;4.396;2023-04-29T15:47:05;18.00;99.90
23160;DHT22;11748;50.844;4.396;2023-04-29T15:49:31;17.80;99.90
23160;DHT22;11748;50.844;4.396;2023-04-29T15:51:57;17.70;99.90